Decoded Metar for KATY (WATERTOWN in SD, USA) (IATA:ATY) | Meteo·Mobile Aviation Weather
aviador You're here:

KATY Decoded Metar

WATERTOWN in SD, USA
Report Time2018-09-18 22:53:00
UTC Time2018-09-18 23:48:51
Flight Rules vfr VFR
Wind060° at 06 kt
W.Decomp.*RWY 35: 2.6 kt HW 5.4 kt RCW
RWY 12: 2.4 kt HW 5.5 kt LCW
W.Rank060° ranks 34
Current wind is below 060° avg. (8.3)
Visibility9999 m
Phenomena:N/A
Clouds:Overcast 033 Hf
Expected CloudBase > 2,400 ft AGL from Temp-Dew spread
Ceiling3,300 ft
Temp20°C (ISA +8)
Dew Point14°C (69% RH)
AAT19.1°C
QNH1014 hPa
Density Alt2,920 ft
Elevation1,745 ft
Report Wrong Elevation
Raw Report
KATY 182253Z AUTO 06006KT 10SM OVC033 20/14 A2995 RMK AO2 SLP138
T02000144=

Extra information for KATY:More info

Metar Taf Metar & Taf Last 4 Metars F.Rules Stats Wind Profile Meteogram Temp Stats Airport Information Weather charts Add Link Nearby VenuesMetar ALERT Operation Metar Decoded Social comments

AIRNAV info for KATY